Birtle, Canada
Current Conditions -  °F | °C
As of 5:00 PM on Saturday 25 Oct 2014 (Local Time) from CYBR Reporting Station
Scattered Clouds Scattered Clouds  
Wind Chill: 57°   Ceiling: Unl
Heat Index: 57°   Visibility: 15mi
Dew Point: 27°   Wind: 18mph
Humidity: 31%   Direction: 280°W
Pressure: 30.01"   Gusts: 24mph
Location:  50.43°N, 101.05°W
Report Text: CYBR 252200Z 28016G21KT 15SM SCT250 14/M03 A3001 RMK CI3 SLP176 DENSITY ALT 1400FT
Loading
Personal Weather Stations






























Interactive Weather Map
Tropical Storm Tracking
New forecast layout! Learn more

10-Day Weather Forecast

Advertisements
Track Severe Weather on mobile